createdAt,value
2023-04-27T00:02:00.176Z,5.30
2023-04-27T00:04:28.225Z,5.60
2023-04-27T00:06:56.248Z,5.50
2023-04-27T00:09:25.731Z,5.63
2023-04-27T00:11:53.451Z,5.00
2023-04-27T00:14:21.562Z,5.30
2023-04-27T00:16:49.485Z,5.53
2023-04-27T00:19:17.330Z,5.07
2023-04-27T00:21:45.084Z,5.80
2023-04-27T00:24:12.866Z,5.50
2023-04-27T00:26:42.151Z,4.90
2023-04-27T00:29:09.851Z,5.20
2023-04-27T00:31:37.658Z,5.70
2023-04-27T00:34:05.811Z,5.87
2023-04-27T00:36:34.827Z,5.73
2023-04-27T00:39:04.247Z,5.47
2023-04-27T00:41:33.151Z,5.90
2023-04-27T00:44:03.118Z,6.47
2023-04-27T00:46:31.494Z,5.93
2023-04-27T00:48:59.871Z,5.67
2023-04-27T00:51:30.087Z,6.47
2023-04-27T00:53:58.818Z,6.03
2023-04-27T00:56:26.570Z,5.63
2023-04-27T00:58:55.911Z,5.80
2023-04-27T01:01:25.120Z,5.90
2023-04-27T01:03:53.117Z,5.83
2023-04-27T01:06:20.976Z,5.60
2023-04-27T01:08:48.736Z,6.10
2023-04-27T01:11:16.647Z,5.73
2023-04-27T01:13:44.433Z,6.20
2023-04-27T01:16:12.201Z,6.07
2023-04-27T01:18:41.641Z,5.73
2023-04-27T01:21:09.404Z,6.27
2023-04-27T01:23:38.925Z,6.30
2023-04-27T01:26:06.724Z,5.63
2023-04-27T01:28:34.572Z,6.20
2023-04-27T01:31:02.339Z,5.67
2023-04-27T01:33:30.120Z,5.70
2023-04-27T01:35:57.931Z,5.70
2023-04-27T01:38:28.533Z,5.80
2023-04-27T01:41:02.103Z,6.33
2023-04-27T01:43:30.592Z,5.70
2023-04-27T01:45:58.303Z,5.50
2023-04-27T01:48:26.049Z,6.60
2023-04-27T01:50:53.953Z,6.10
2023-04-27T01:53:21.916Z,5.80
2023-04-27T01:55:49.709Z,6.50
2023-04-27T01:58:18.817Z,6.40
2023-04-27T02:00:46.732Z,6.60
2023-04-27T02:03:14.605Z,6.23
2023-04-27T02:05:42.859Z,6.30
2023-04-27T02:08:10.725Z,6.97
2023-04-27T02:10:39.607Z,6.77
2023-04-27T02:13:07.490Z,5.90
2023-04-27T02:15:36.628Z,5.83
2023-04-27T02:18:05.039Z,5.87
2023-04-27T02:20:33.366Z,6.23
2023-04-27T02:23:02.176Z,6.03
2023-04-27T02:25:30.476Z,5.60
2023-04-27T02:27:58.243Z,6.07
2023-04-27T02:30:26.433Z,6.57
2023-04-27T02:33:00.889Z,6.40
2023-04-27T02:35:28.904Z,6.37
2023-04-27T02:37:56.712Z,5.60
2023-04-27T02:40:25.311Z,5.97
2023-04-27T02:42:53.146Z,6.70
2023-04-27T02:45:20.917Z,6.23
2023-04-27T02:47:48.968Z,6.13
2023-04-27T02:50:18.551Z,5.63
2023-04-27T02:52:46.283Z,6.67
2023-04-27T02:55:14.510Z,5.90
2023-04-27T02:57:42.429Z,6.40
2023-04-27T03:00:11.665Z,5.60
2023-04-27T03:02:39.597Z,5.67
2023-04-27T03:05:08.464Z,5.67
2023-04-27T03:07:37.599Z,5.30
2023-04-27T03:10:06.038Z,5.93
2023-04-27T03:12:33.781Z,6.23
2023-04-27T03:15:01.693Z,5.53
2023-04-27T03:17:29.685Z,5.87
2023-04-27T03:19:57.469Z,5.87
2023-04-27T03:22:25.339Z,5.90
2023-04-27T03:24:54.436Z,5.67
2023-04-27T03:27:22.227Z,5.47
2023-04-27T03:29:52.767Z,6.30
2023-04-27T03:32:20.918Z,5.80
2023-04-27T03:34:48.692Z,6.40
2023-04-27T03:37:17.249Z,5.97
2023-04-27T03:39:45.162Z,5.80
2023-04-27T03:42:14.925Z,6.10
2023-04-27T03:44:42.698Z,6.00
2023-04-27T03:47:10.513Z,5.93
2023-04-27T03:49:40.111Z,6.03
2023-04-27T03:52:08.948Z,6.40
2023-04-27T03:54:37.320Z,6.23
2023-04-27T03:57:05.322Z,6.50
2023-04-27T03:59:34.486Z,6.03
2023-04-27T04:02:03.925Z,7.20
2023-04-27T04:04:32.278Z,6.60
2023-04-27T04:07:00.196Z,6.83
2023-04-27T04:09:28.087Z,7.13
2023-04-27T04:11:56.078Z,7.20
2023-04-27T04:14:23.878Z,7.37
2023-04-27T04:16:53.999Z,6.50
2023-04-27T04:19:22.355Z,6.40
2023-04-27T04:21:50.699Z,7.43
2023-04-27T04:24:19.940Z,6.97
2023-04-27T04:26:48.633Z,7.00
2023-04-27T04:29:16.805Z,7.60
2023-04-27T04:31:45.136Z,7.33
2023-04-27T04:34:14.522Z,7.20
2023-04-27T04:36:42.541Z,6.80
2023-04-27T04:39:12.645Z,7.80
2023-04-27T04:41:40.681Z,7.93
2023-04-27T04:44:10.929Z,7.83
2023-04-27T04:46:38.889Z,7.37
2023-04-27T04:49:07.402Z,7.07
2023-04-27T04:51:36.621Z,8.10
2023-04-27T04:54:04.656Z,7.80
2023-04-27T04:56:32.436Z,7.87
2023-04-27T04:59:02.375Z,7.77
2023-04-27T05:01:32.474Z,7.30
2023-04-27T05:04:00.530Z,7.30
2023-04-27T05:06:28.346Z,8.33
2023-04-27T05:08:57.419Z,9.07
2023-04-27T05:11:25.176Z,8.00
2023-04-27T05:13:52.988Z,7.43
2023-04-27T05:16:21.142Z,7.57
2023-04-27T05:18:49.083Z,8.37
2023-04-27T05:21:17.634Z,8.30
2023-04-27T05:23:45.372Z,7.33
2023-04-27T05:26:15.190Z,8.20
2023-04-27T05:28:43.270Z,7.30
2023-04-27T05:31:11.210Z,8.20
2023-04-27T05:33:39.003Z,8.20
2023-04-27T05:36:07.180Z,7.93
2023-04-27T05:38:39.953Z,8.40
2023-04-27T05:41:07.894Z,7.83
2023-04-27T05:43:38.608Z,8.73
2023-04-27T05:46:06.677Z,8.00
2023-04-27T05:48:34.991Z,8.30
2023-04-27T05:51:03.890Z,8.63
2023-04-27T05:53:31.807Z,8.90
2023-04-27T05:56:01.003Z,8.53
2023-04-27T05:58:29.046Z,8.53
2023-04-27T06:00:58.246Z,8.90
2023-04-27T06:03:26.509Z,8.83
2023-04-27T06:05:59.071Z,9.10
2023-04-27T06:08:27.087Z,8.07
2023-04-27T06:10:55.378Z,9.00
2023-04-27T06:13:23.387Z,9.57
2023-04-27T06:15:51.254Z,9.20
2023-04-27T06:18:20.438Z,8.83
2023-04-27T06:20:48.313Z,8.97
2023-04-27T06:23:16.092Z,8.97
2023-04-27T06:25:45.364Z,8.87
2023-04-27T06:28:13.047Z,8.57
2023-04-27T06:30:40.821Z,9.57
2023-04-27T06:33:08.537Z,9.70
2023-04-27T06:35:37.684Z,9.57
2023-04-27T06:38:07.564Z,8.93
2023-04-27T06:40:37.023Z,9.80
2023-04-27T06:43:05.234Z,9.57
2023-04-27T06:45:33.016Z,9.13
2023-04-27T06:48:00.997Z,9.80
2023-04-27T06:50:29.270Z,8.87
2023-04-27T06:52:58.482Z,8.77
2023-04-27T06:55:26.267Z,9.43
2023-04-27T06:57:53.949Z,8.73
2023-04-27T07:00:22.987Z,9.00
2023-04-27T07:02:51.798Z,9.20
2023-04-27T07:05:19.857Z,8.37
2023-04-27T07:07:47.658Z,8.70
2023-04-27T07:10:16.802Z,8.27
2023-04-27T07:12:44.678Z,8.63
2023-04-27T07:15:12.478Z,9.03
2023-04-27T07:17:40.292Z,9.27
2023-04-27T07:20:09.487Z,8.70
2023-04-27T07:22:37.458Z,8.60
2023-04-27T07:25:06.024Z,8.70
2023-04-27T07:27:35.644Z,8.47
2023-04-27T07:30:03.467Z,11.40
2023-04-27T07:32:31.326Z,9.90
2023-04-27T07:34:59.573Z,8.97
2023-04-27T07:37:27.423Z,9.73
2023-04-27T07:39:55.132Z,8.70
2023-04-27T07:42:23.593Z,9.27
2023-04-27T07:44:54.083Z,8.10
2023-04-27T07:47:22.019Z,9.13
2023-04-27T07:49:49.764Z,8.50
2023-04-27T07:52:17.518Z,8.23
2023-04-27T07:54:45.494Z,8.70
2023-04-27T07:57:13.256Z,9.27
2023-04-27T07:59:41.186Z,8.70
2023-04-27T08:02:18.449Z,9.17
2023-04-27T08:04:48.042Z,9.07
2023-04-27T08:07:16.474Z,9.37
2023-04-27T08:09:44.328Z,9.23
2023-04-27T08:12:12.060Z,8.47
2023-04-27T08:14:39.801Z,8.77
2023-04-27T08:17:07.693Z,8.53
2023-04-27T08:19:36.946Z,8.30
2023-04-27T08:22:04.700Z,7.03
2023-04-27T08:24:32.474Z,8.17
2023-04-27T08:27:00.235Z,8.80
2023-04-27T08:29:29.054Z,7.57
2023-04-27T08:32:01.233Z,7.83
2023-04-27T08:34:29.364Z,7.43
2023-04-27T08:36:58.652Z,7.70
2023-04-27T08:39:26.398Z,7.20
2023-04-27T08:41:54.450Z,7.67
2023-04-27T08:44:22.322Z,6.57
2023-04-27T08:46:50.793Z,6.47
2023-04-27T08:49:19.125Z,6.83
2023-04-27T08:51:47.008Z,6.50
2023-04-27T08:54:16.236Z,6.63
2023-04-27T08:56:43.976Z,6.83
2023-04-27T08:59:17.259Z,6.90
2023-04-27T09:01:46.787Z,6.13
2023-04-27T09:04:14.967Z,6.37
2023-04-27T09:06:43.163Z,6.47
2023-04-27T09:09:11.361Z,6.23
2023-04-27T09:11:40.847Z,6.30
2023-04-27T09:14:17.689Z,5.93
2023-04-27T09:16:45.733Z,6.60
2023-04-27T09:19:13.857Z,7.27
2023-04-27T09:21:43.086Z,6.27
2023-04-27T09:24:12.313Z,6.40
2023-04-27T09:26:42.539Z,6.17
2023-04-27T09:29:10.446Z,6.60
2023-04-27T09:31:38.241Z,6.23
2023-04-27T09:34:06.274Z,5.93
2023-04-27T09:36:34.157Z,6.77
2023-04-27T09:39:04.607Z,6.33
2023-04-27T09:41:33.308Z,6.20
2023-04-27T09:44:03.346Z,7.32
2023-04-27T09:46:34.509Z,6.87
2023-04-27T09:49:05.539Z,7.68
2023-04-27T09:51:34.843Z,7.23
2023-04-27T09:54:05.111Z,6.50
2023-04-27T09:56:43.394Z,6.37
2023-04-27T09:59:32.354Z,7.03
2023-04-27T10:02:09.985Z,6.90
2023-04-27T10:05:03.969Z,6.57
2023-04-27T10:07:33.298Z,7.47
2023-04-27T10:10:04.269Z,7.80
2023-04-27T10:12:36.221Z,6.90
2023-04-27T10:15:15.348Z,6.87
2023-04-27T10:17:49.635Z,6.80
2023-04-27T10:20:17.747Z,6.30
2023-04-27T10:22:47.731Z,6.13
2023-04-27T10:25:18.834Z,6.83
2023-04-27T10:27:51.913Z,7.80
2023-04-27T10:30:22.255Z,7.03
2023-04-27T10:32:54.149Z,7.83
2023-04-27T10:35:23.148Z,7.97
2023-04-27T10:37:52.198Z,7.47
2023-04-27T10:40:19.925Z,7.27
2023-04-27T10:42:49.516Z,6.90
2023-04-27T10:45:31.430Z,6.77
2023-04-27T10:48:01.584Z,6.60
2023-04-27T10:50:30.114Z,6.47
2023-04-27T10:53:02.539Z,6.45
2023-04-27T10:55:31.430Z,6.10
2023-04-27T10:58:00.229Z,6.00
2023-04-27T11:00:31.542Z,7.43
2023-04-27T11:03:12.354Z,6.68
2023-04-27T11:05:40.218Z,6.90
2023-04-27T11:08:09.070Z,5.75
2023-04-27T11:10:41.149Z,5.50
2023-04-27T11:13:11.335Z,6.88
2023-04-27T11:15:51.709Z,6.43
2023-04-27T11:18:21.611Z,6.27
2023-04-27T11:20:52.341Z,7.47
2023-04-27T11:23:27.351Z,7.63
2023-04-27T11:25:55.855Z,7.93
2023-04-27T11:28:24.330Z,7.28
2023-04-27T11:31:04.407Z,8.48
2023-04-27T11:33:32.552Z,7.38
2023-04-27T11:36:01.093Z,7.80
2023-04-27T11:38:34.688Z,7.50
2023-04-27T11:41:06.121Z,7.38
2023-04-27T11:43:37.671Z,8.02
2023-04-27T11:46:08.208Z,7.65
2023-04-27T11:48:37.552Z,7.45
2023-04-27T11:51:06.017Z,6.88
2023-04-27T11:53:36.512Z,8.13
2023-04-27T11:56:06.236Z,8.23
2023-04-27T11:58:35.223Z,8.18
2023-04-27T12:01:03.939Z,7.60
2023-04-27T12:03:33.339Z,7.70
2023-04-27T12:06:16.194Z,7.47
2023-04-27T12:08:49.283Z,8.48
2023-04-27T12:11:17.068Z,8.10
2023-04-27T12:13:44.888Z,7.47
2023-04-27T12:16:13.375Z,8.10
2023-04-27T12:18:42.575Z,7.35
2023-04-27T12:21:10.420Z,7.68
2023-04-27T12:23:38.179Z,7.95
2023-04-27T12:26:06.217Z,6.15
2023-04-27T12:28:33.975Z,7.57
2023-04-27T12:31:04.239Z,7.95
2023-04-27T12:33:32.219Z,7.35
2023-04-27T12:36:01.327Z,7.32
2023-04-27T12:38:29.282Z,7.70
2023-04-27T12:40:57.142Z,7.60
2023-04-27T12:43:24.879Z,7.72
2023-04-27T12:45:52.723Z,7.38
2023-04-27T12:48:20.734Z,7.70
2023-04-27T12:50:48.559Z,7.78
2023-04-27T12:53:17.684Z,8.15
2023-04-27T12:55:46.923Z,6.63
2023-04-27T12:58:14.718Z,7.70
2023-04-27T13:00:42.788Z,8.13
2023-04-27T13:03:10.748Z,8.30
2023-04-27T13:05:38.547Z,8.13
2023-04-27T13:08:06.595Z,7.70
2023-04-27T13:10:36.552Z,8.55
2023-04-27T13:13:04.624Z,7.82
2023-04-27T13:15:32.394Z,6.93
2023-04-27T13:18:01.785Z,6.82
2023-04-27T13:20:29.602Z,6.90
2023-04-27T13:22:57.386Z,7.30
2023-04-27T13:25:25.098Z,7.35
2023-04-27T13:27:54.252Z,7.47
2023-04-27T13:30:22.194Z,6.82
2023-04-27T13:32:49.943Z,7.07
2023-04-27T13:35:17.780Z,7.45
2023-04-27T13:37:45.687Z,7.10
2023-04-27T13:40:13.852Z,6.85
2023-04-27T13:42:41.703Z,6.82
2023-04-27T13:45:11.676Z,7.05
2023-04-27T13:47:40.538Z,6.63
2023-04-27T13:50:10.073Z,7.05
2023-04-27T13:52:39.163Z,6.95
2023-04-27T13:55:09.188Z,6.80
2023-04-27T13:57:37.258Z,7.25
2023-04-27T14:00:07.877Z,7.10
2023-04-27T14:02:37.586Z,7.97
2023-04-27T14:05:06.446Z,7.45
2023-04-27T14:07:35.632Z,6.90
2023-04-27T14:10:03.826Z,7.20
2023-04-27T14:12:31.980Z,7.05
2023-04-27T14:14:59.731Z,6.75
2023-04-27T14:17:27.651Z,6.97
2023-04-27T14:19:56.708Z,7.13
2023-04-27T14:22:24.553Z,6.22
2023-04-27T14:24:52.366Z,6.00
2023-04-27T14:27:20.413Z,6.32
2023-04-27T14:29:48.121Z,5.93
2023-04-27T14:32:16.057Z,6.43
2023-04-27T14:34:43.841Z,6.70
2023-04-27T14:37:13.004Z,6.35
2023-04-27T14:39:42.285Z,6.47
2023-04-27T14:42:11.514Z,6.75
2023-04-27T14:44:39.173Z,6.40
2023-04-27T14:47:07.038Z,6.97
2023-04-27T14:49:34.665Z,6.88
2023-04-27T14:52:04.712Z,7.03
2023-04-27T14:54:33.909Z,6.70
2023-04-27T14:57:02.036Z,6.35
2023-04-27T14:59:30.052Z,5.68
2023-04-27T15:01:57.821Z,5.72
2023-04-27T15:04:25.676Z,5.57
2023-04-27T15:06:54.918Z,5.50
2023-04-27T15:09:22.728Z,6.25
2023-04-27T15:11:51.849Z,5.72
2023-04-27T15:14:19.616Z,6.25
2023-04-27T15:16:47.376Z,6.40
2023-04-27T15:19:15.426Z,4.70
2023-04-27T15:21:43.283Z,5.63
2023-04-27T15:24:14.224Z,6.07
2023-04-27T15:26:42.472Z,4.30
2023-04-27T15:29:13.697Z,5.22
2023-04-27T15:31:41.768Z,6.20
2023-04-27T15:34:09.505Z,6.00
2023-04-27T15:36:37.337Z,5.90
2023-04-27T15:39:06.330Z,5.70
2023-04-27T15:41:34.946Z,5.55
2023-04-27T15:44:02.709Z,5.72
2023-04-27T15:46:34.128Z,5.72
2023-04-27T15:49:04.010Z,4.72
2023-04-27T15:51:32.328Z,4.85
2023-04-27T15:54:00.268Z,5.53
2023-04-27T15:56:30.500Z,4.78
2023-04-27T15:58:58.725Z,5.20
2023-04-27T16:01:26.592Z,5.07
2023-04-27T16:03:56.560Z,4.88
2023-04-27T16:06:30.353Z,4.70
2023-04-27T16:08:58.120Z,4.78
2023-04-27T16:11:25.800Z,5.03
2023-04-27T16:13:53.521Z,5.03
2023-04-27T16:16:21.346Z,5.30
2023-04-27T16:18:49.107Z,5.55
2023-04-27T16:21:18.151Z,4.60
2023-04-27T16:23:45.820Z,4.68
2023-04-27T16:26:13.549Z,5.07
2023-04-27T16:28:41.402Z,4.50
2023-04-27T16:31:09.408Z,4.63
2023-04-27T16:33:37.224Z,4.45
2023-04-27T16:36:05.500Z,4.22
2023-04-27T16:38:35.173Z,4.38
2023-04-27T16:41:06.838Z,4.90
2023-04-27T16:43:34.710Z,4.75
2023-04-27T16:46:02.556Z,4.53
2023-04-27T16:48:30.564Z,4.90
2023-04-27T16:50:58.618Z,4.47
2023-04-27T16:53:27.081Z,4.55
2023-04-27T16:55:56.172Z,4.22
2023-04-27T16:58:24.193Z,4.57
2023-04-27T17:00:51.928Z,4.45
2023-04-27T17:03:21.537Z,4.60
2023-04-27T17:05:49.355Z,4.22
2023-04-27T17:08:17.082Z,4.50
2023-04-27T17:10:45.507Z,4.50
2023-04-27T17:13:16.441Z,4.60
2023-04-27T17:15:44.250Z,4.53
2023-04-27T17:18:12.061Z,4.68
2023-04-27T17:20:42.158Z,4.22
2023-04-27T17:23:10.075Z,4.40
2023-04-27T17:25:37.842Z,4.22
2023-04-27T17:28:05.886Z,4.03
2023-04-27T17:30:34.925Z,3.53
2023-04-27T17:33:03.519Z,3.50
2023-04-27T17:35:31.646Z,3.15
2023-04-27T17:37:59.382Z,3.75
2023-04-27T17:40:27.273Z,3.65
2023-04-27T17:42:56.465Z,3.35
2023-04-27T17:45:26.347Z,3.15
2023-04-27T17:47:55.731Z,3.42
2023-04-27T17:50:23.516Z,3.63
2023-04-27T17:52:51.483Z,3.35
2023-04-27T17:55:19.393Z,3.65
2023-04-27T17:57:47.250Z,3.20
2023-04-27T18:00:18.065Z,3.58
2023-04-27T18:02:48.148Z,2.97
2023-04-27T18:05:17.535Z,5.00
2023-04-27T18:07:46.571Z,3.70
2023-04-27T18:10:15.003Z,3.33
2023-04-27T18:12:42.716Z,3.65
2023-04-27T18:15:11.391Z,3.08
2023-04-27T18:17:39.208Z,3.70
2023-04-27T18:20:10.160Z,3.30
2023-04-27T18:22:41.122Z,3.28
2023-04-27T18:25:10.670Z,3.15
2023-04-27T18:27:38.631Z,3.28
2023-04-27T18:30:08.764Z,3.45
2023-04-27T18:32:36.650Z,3.47
2023-04-27T18:35:05.621Z,3.08
2023-04-27T18:37:33.529Z,3.10
2023-04-27T18:40:02.763Z,3.13
2023-04-27T18:42:30.656Z,2.63
2023-04-27T18:45:00.773Z,3.13
2023-04-27T18:47:28.885Z,3.05
2023-04-27T18:49:56.599Z,3.35
2023-04-27T18:52:24.366Z,4.00
2023-04-27T18:54:52.081Z,4.63
2023-04-27T18:57:21.132Z,4.32
2023-04-27T18:59:48.937Z,4.00
2023-04-27T19:02:16.718Z,4.22
2023-04-27T19:04:52.879Z,4.93
2023-04-27T19:07:29.684Z,4.60
2023-04-27T19:09:57.414Z,4.63
2023-04-27T19:12:26.626Z,3.80
2023-04-27T19:14:54.434Z,4.40
2023-04-27T19:17:22.426Z,4.40
2023-04-27T19:19:50.393Z,4.53
2023-04-27T19:22:18.091Z,4.22
2023-04-27T19:24:45.875Z,4.93
2023-04-27T19:27:13.962Z,4.32
2023-04-27T19:29:54.210Z,4.68
2023-04-27T19:32:25.204Z,4.85
2023-04-27T19:34:53.289Z,4.68
2023-04-27T19:37:21.664Z,3.95
2023-04-27T19:39:49.521Z,5.18
2023-04-27T19:42:17.445Z,4.68
2023-04-27T19:44:45.189Z,5.13
2023-04-27T19:47:14.370Z,4.72
2023-04-27T19:49:42.115Z,4.57
2023-04-27T19:52:09.896Z,4.40
2023-04-27T19:54:38.322Z,4.57
2023-04-27T19:57:06.271Z,4.80
2023-04-27T19:59:34.089Z,4.85
2023-04-27T20:02:01.942Z,5.13
2023-04-27T20:04:31.279Z,4.85
2023-04-27T20:07:01.058Z,5.25
2023-04-27T20:09:28.828Z,4.97
2023-04-27T20:11:56.625Z,4.68
2023-04-27T20:14:24.884Z,5.07
2023-04-27T20:16:52.781Z,5.38
2023-04-27T20:19:22.640Z,4.63
2023-04-27T20:21:51.816Z,5.07
2023-04-27T20:24:19.546Z,5.38
2023-04-27T20:26:47.450Z,4.60
2023-04-27T20:29:15.182Z,4.30
2023-04-27T20:31:42.991Z,5.28
2023-04-27T20:34:11.241Z,4.63
2023-04-27T20:36:38.995Z,4.78
2023-04-27T20:39:08.980Z,4.63
2023-04-27T20:41:38.514Z,4.90
2023-04-27T20:44:06.319Z,5.45
2023-04-27T20:46:34.134Z,4.93
2023-04-27T20:49:01.875Z,5.03
2023-04-27T20:51:29.768Z,5.40
2023-04-27T20:53:57.625Z,5.18
2023-04-27T20:56:26.939Z,5.30
2023-04-27T20:58:54.646Z,5.05
2023-04-27T21:01:22.402Z,5.13
2023-04-27T21:03:50.326Z,5.50
2023-04-27T21:06:18.186Z,5.30
2023-04-27T21:08:45.986Z,4.77
2023-04-27T21:11:15.097Z,4.85
2023-04-27T21:13:45.713Z,5.22
2023-04-27T21:16:13.557Z,5.20
2023-04-27T21:18:41.289Z,5.00
2023-04-27T21:21:09.046Z,5.20
2023-04-27T21:23:36.727Z,5.15
2023-04-27T21:26:04.570Z,5.53
2023-04-27T21:28:32.530Z,4.68
2023-04-27T21:31:01.720Z,4.90
2023-04-27T21:33:31.659Z,5.50
2023-04-27T21:35:59.582Z,5.10
2023-04-27T21:38:27.355Z,5.10
2023-04-27T21:40:55.076Z,5.03
2023-04-27T21:43:22.895Z,4.93
2023-04-27T21:45:50.700Z,5.03
2023-04-27T21:48:19.775Z,5.25
2023-04-27T21:50:47.694Z,5.10
2023-04-27T21:53:15.810Z,5.30
2023-04-27T21:55:43.685Z,5.40
2023-04-27T21:58:11.595Z,4.60
2023-04-27T22:00:39.649Z,4.87
2023-04-27T22:03:07.856Z,4.53
2023-04-27T22:05:37.649Z,4.85
2023-04-27T22:08:05.501Z,4.63
2023-04-27T22:10:33.227Z,4.93
2023-04-27T22:13:08.200Z,4.70
2023-04-27T22:15:45.853Z,4.90
2023-04-27T22:18:14.318Z,4.70
2023-04-27T22:20:44.370Z,4.97
2023-04-27T22:23:12.114Z,5.20
2023-04-27T22:25:42.533Z,4.50
2023-04-27T22:28:10.330Z,4.32
2023-04-27T22:30:40.013Z,4.83
2023-04-27T22:33:08.073Z,4.50
2023-04-27T22:35:36.985Z,4.63
2023-04-27T22:38:06.996Z,4.75
2023-04-27T22:40:34.849Z,4.40
2023-04-27T22:43:02.599Z,4.25
2023-04-27T22:45:30.534Z,4.57
2023-04-27T22:47:58.614Z,4.47
2023-04-27T22:50:26.652Z,4.18
2023-04-27T22:52:54.403Z,3.87
2023-04-27T22:55:23.655Z,4.10
2023-04-27T22:57:53.626Z,4.13
2023-04-27T23:00:21.743Z,3.83
2023-04-27T23:02:49.686Z,3.65
2023-04-27T23:05:17.623Z,4.03
2023-04-27T23:07:46.316Z,3.60
2023-04-27T23:10:15.224Z,4.17
2023-04-27T23:12:44.379Z,3.93
2023-04-27T23:15:12.660Z,3.97
2023-04-27T23:17:40.532Z,4.20
2023-04-27T23:20:20.376Z,4.28
2023-04-27T23:22:54.917Z,3.87
2023-04-27T23:25:22.707Z,3.83
2023-04-27T23:27:52.698Z,5.17
2023-04-27T23:30:21.380Z,4.30
2023-04-27T23:32:49.254Z,4.83
2023-04-27T23:35:17.150Z,3.77
2023-04-27T23:37:45.022Z,4.23
2023-04-27T23:40:14.058Z,3.20
2023-04-27T23:42:41.945Z,4.30
2023-04-27T23:45:12.267Z,3.40
2023-04-27T23:47:40.116Z,3.80
2023-04-27T23:50:09.030Z,3.63
2023-04-27T23:52:37.091Z,4.17
2023-04-27T23:55:05.518Z,4.15
2023-04-27T23:57:33.303Z,3.60
